Flight Track Log - Related Links

Times and Time Zones

All times are in EDT time to prevent confusion due to time zone crossing. See the AAL991 flight status page for this flight to view local times or setup timezone preferences in your user account.

Time Position Orientation Groundspeed Altitude Reporting Facility
EDT Latitude Longitude Course Direction KTS MPH feet Rate Location/Type
Sun 12:16:12 AM 25.8030 -80.3050 270° West 180 207 400  Level FlightAware
Sun 12:16:42 AM 25.8000 -80.3330 263° West 186 214 1,700 2,073 Climbing FlightAware
Sun 12:17:07 AM 25.7960 -80.3540 258° West 202 232 2,300 1,309 Climbing FlightAware
Sun 12:17:37 AM 25.7920 -80.3900 263° West 237 273 2,900 1,600 Climbing FlightAware
Sun 12:17:52 AM 25.7890 -80.4090 260° West 244 281 3,500 2,400 Climbing FlightAware
Sun 12:18:02 AM 25.7850 -80.4200 248° West 250 288 3,900 1,920 Climbing FlightAware
Sun 12:18:17 AM 25.7710 -80.4330 220° Southwest 269 310 4,300 2,200 Climbing FlightAware
Sun 12:18:32 AM 25.7520 -80.4380 193° South 276 318 5,000 2,800 Climbing FlightAware
Sun 12:18:47 AM 25.7340 -80.4410 189° South 277 319 5,700 2,533 Climbing FlightAware
Sun 12:19:17 AM 25.7010 -80.4530 198° South 283 326 6,900 2,914 Climbing FlightAware
Sun 12:19:22 AM 25.6900 -80.4550 189° South 284 327 7,400 2,945 Climbing FlightAware
Sun 12:20:12 AM 25.6360 -80.4170 148° Southeast 292 336 9,600 2,500 Climbing FlightAware
Sun 12:20:22 AM 25.6270 -80.4060 132° Southeast 293 337 9,900 1,050 Climbing FlightAware
Sun 12:21:32 AM 25.5590 -80.3210 132° Southeast 343 395 11,000 910 Climbing FlightAware
Sun 12:22:47 AM 25.4770 -80.2130 130° Southeast 388 447 12,100 1,071 Climbing FlightAware
Sun 12:23:52 AM 25.3980 -80.1110 131° Southeast 410 472 13,500 1,500 Climbing FlightAware
Sun 12:25:07 AM 25.3010 -79.9900 132° Southeast 419 482 15,600 1,745 Climbing FlightAware
Sun 12:26:37 AM 25.1600 -79.8870 147° Southeast 425 489 18,300 1,543 Climbing FlightAware
Sun 12:27:27 AM 25.0770 -79.8260 146° Southeast 442 509 19,200 1,125 Climbing FlightAware
Sun 12:27:57 AM 25.0260 -79.7890 147° Southeast 441 507 19,800 1,200 Climbing FlightAware
Sun 12:29:02 AM 24.9120 -79.7080 147° Southeast 462 532 21,100 1,257 Climbing FlightAware
Sun 12:29:42 AM 24.8420 -79.6580 147° Southeast 462 532 22,000 635 Climbing FlightAware
Sun 12:30:27 AM 24.7680 -79.6030 146° Southeast 462 532 22,000  Level FlightAware
Sun 12:31:07 AM 24.7080 -79.5580 146° Southeast 462 532 22,000  Level FlightAware
Sun 12:31:47 AM 24.6470 -79.5140 147° Southeast 462 532 22,000  Level FlightAware
Sun 12:32:27 AM 24.5870 -79.4690 146° Southeast 462 532 22,000  Level FlightAware
Sun 12:33:17 AM 24.5120 -79.4130 146° Southeast 462 532 22,000 4,692 Level FlightAware
Sun 12:33:45 AM 24.3567 -79.3200 146° Southeast 497 572 28,100 5,318 Climbing Miami Center
Sun 12:34:45 AM 24.2411 -79.2336 146° Southeast 503 579 29,800 1,600 Climbing Miami Center
Sun 12:35:45 AM 24.1336 -79.1678 151° Southeast 496 571 31,300 1,289 Climbing Miami Center
Sun 12:36:46 AM 24.0178 -79.0883 148° Southeast 493 567 32,400 836 Climbing Miami Center
Sun 12:37:47 AM 23.9019 -79.0000 145° Southeast 498 573 33,000 298 Climbing Miami Center
Sun 12:38:47 AM 23.7861 -78.9117 145° Southeast 504 580 33,000  Level Miami Center
Sun 12:39:45 AM 23.6703 -78.8258 146° Southeast 504 580 33,000  Level Miami Center
Sun 12:40:45 AM 23.5481 -78.7356 146° Southeast 504 580 33,000  Level Miami Center
Sun 12:41:45 AM 23.4342 -78.6525 146° Southeast 504 580 33,000  Level Miami Center
Sun 12:42:47 AM 23.3161 -78.5647 146° Southeast 514 592 33,000  Level Miami Center
Sun 12:43:48 AM 23.1939 -78.4683 144° Southeast 519 597 33,000  Level Miami Center
Sun 12:44:45 AM 23.0778 -78.3878 147° Southeast 519 597 33,000  Level Miami Center
Sun 12:45:46 AM 22.9617 -78.3031 146° Southeast 510 587 33,000  Level Miami Center
Sun 12:46:46 AM 22.8414 -78.2136 146° Southeast 516 594 33,000  Level Miami Center
Sun 12:47:47 AM 22.7208 -78.1178 144° Southeast 523 602 33,000  Level Miami Center
Sun 12:48:47 AM 22.6006 -78.0289 146° Southeast 521 600 33,000 50 Level Miami Center
Sun 12:49:48 AM 22.4819 -77.9492 148° Southeast 521 600 33,100 800 Climbing Miami Center
Sun 12:50:47 AM 22.3656 -77.8653 146° Southeast 521 600 34,600 966 Climbing Miami Center
Sun 12:51:46 AM 22.2428 -77.7789 147° Southeast 521 600 35,000 202 Climbing Miami Center
Sun 12:52:46 AM 22.1264 -77.6931 146° Southeast 521 600 35,000  Level Miami Center
Sun 12:53:45 AM 22.0056 -77.6050 146° Southeast 516 594 35,000  Level Miami Center
Sun 12:54:47 AM 21.8850 -77.5192 147° Southeast 521 600 35,000  Level Miami Center
Sun 12:55:46 AM 21.7661 -77.4336 146° Southeast 516 594 35,000  Level Miami Center
Sun 12:56:46 AM 21.6475 -77.3483 146° Southeast 528 608 35,000  Level Miami Center
Sun 12:57:45 AM 21.5244 -77.2608 147° Southeast 533 613 35,000  Level Miami Center
Sun 12:58:47 AM 21.3994 -77.1689 146° Southeast 533 613 35,000  Level Miami Center
Sun 12:59:48 AM 21.2764 -77.0817 147° Southeast 525 604 35,000  Level Miami Center
Sun 01:00:45 AM 21.1428 -76.9792 144° Southeast 531 611 35,000  Level Miami Center
Sun 01:01:45 AM 21.0197 -76.8925 147° Southeast 531 611 35,000  Level Miami Center
Sun 01:02:45 AM 20.8986 -76.8058 146° Southeast 531 611 35,000  Level Miami Center
Sun 01:03:47 AM 20.7753 -76.7214 147° Southeast 531 611 35,000  Level Miami Center
Sun 01:04:46 AM 20.6561 -76.6331 145° Southeast 526 605 35,000  Level Miami Center
Sun 01:05:46 AM 20.5308 -76.5467 147° Southeast 531 611 35,000  Level Miami Center
Sun 01:06:46 AM 20.4075 -76.4606 147° Southeast 531 611 35,000  Level Miami Center
Sun 01:07:47 AM 20.2839 -76.3747 147° Southeast 531 611 35,000  Level Miami Center
Sun 01:08:48 AM 20.1628 -76.2869 146° Southeast 531 611 35,000  Level Miami Center
Sun 01:09:45 AM 20.0414 -76.2011 146° Southeast 526 605 35,000  Level Miami Center
Sun 01:10:45 AM 19.9200 -76.1181 147° Southeast 526 605 35,000  Level Miami Center
Sun 01:11:47 AM 19.7964 -76.0306 146° Southeast 531 611 35,000  Level Miami Center
Sun 01:12:48 AM 19.6750 -75.9497 148° Southeast 531 611 35,000  Level Miami Center
Sun 01:13:45 AM 19.5556 -75.8647 146° Southeast 531 611 35,000  Level Miami Center
Sun 01:14:45 AM 19.4297 -75.7775 147° Southeast 531 611 35,000  Level Miami Center
Sun 01:15:45 AM 19.3103 -75.6972 148° Southeast 531 611 35,000  Level Miami Center
Sun 01:16:48 AM 19.1908 -75.6106 146° Southeast 526 605 35,000  Level Miami Center
Sun 01:17:45 AM 19.0797 -75.5369 148° Southeast 526 605 35,000  Level Miami Center
Sun 01:18:45 AM 18.9581 -75.4525 147° Southeast 525 604 35,000  Level Miami Center
Sun 01:19:45 AM 18.8344 -75.3706 148° Southeast 530 610 35,000  Level Miami Center
Sun 01:20:46 AM 18.7147 -75.2886 147° Southeast 530 610 35,000  Level Miami Center
Sun 01:21:45 AM 18.5908 -75.2028 147° Southeast 530 610 35,000  Level Miami Center
Sun 01:22:46 AM 18.4714 -75.1189 146° Southeast 530 610 35,000  Level Miami Center
Sun 01:23:45 AM 18.3517 -75.0308 145° Southeast 530 610 35,000  Level Miami Center
Sun 01:24:46 AM 18.2297 -74.9453 146° Southeast 530 610 35,000  Level Miami Center
Sun 01:25:46 AM 18.1078 -74.8597 146° Southeast 530 610 35,000  Level Miami Center
Sun 01:26:45 AM 17.9861 -74.7742 146° Southeast 530 610 35,000  Level Miami Center
Sun 01:27:48 AM 17.8661 -74.6869 145° Southeast 530 610 35,000  Level Miami Center
Sun 01:28:47 AM 17.7422 -74.6017 147° Southeast 530 610 35,000  Level Miami Center
Sun 01:29:46 AM 17.6203 -74.5211 148° Southeast 530 610 35,000  Level Miami Center
Sun 01:30:45 AM 17.5003 -74.4342 145° Southeast 530 610 35,000 Level Miami Center
Sun 01:32:00 AM 17.3887 -74.3075 133° Southeast  Level FlightAware
Sun 01:39:00 AM 16.7625 -73.6008 133° Southeast  Level FlightAware
Sun 01:40:00 AM 16.6728 -73.5002 133° Southeast  Level FlightAware
Sun 01:41:00 AM 16.5805 -73.3973 137° Southeast  Level FlightAware
Sun 01:42:00 AM 16.4836 -73.3044 137° Southeast  Level FlightAware
Sun 01:43:00 AM 16.3867 -73.2116 137° Southeast  Level FlightAware
Sun 01:44:00 AM 16.2897 -73.1189 137° Southeast  Level FlightAware
Sun 01:45:00 AM 16.1927 -73.0263 137° Southeast  Level FlightAware
Sun 01:46:00 AM 16.0956 -72.9338 138° Southeast  Level FlightAware
Sun 01:47:00 AM 15.9985 -72.8414 138° Southeast  Level FlightAware
Sun 01:48:00 AM 15.9014 -72.7490 138° Southeast  Level FlightAware
Sun 01:49:00 AM 15.8042 -72.6568 138° Southeast  Level FlightAware
Sun 01:50:00 AM 15.7070 -72.5646 138° Southeast  Level FlightAware
Sun 01:51:00 AM 15.6097 -72.4726 138° Southeast  Level FlightAware
Sun 01:52:00 AM 15.5125 -72.3806 138° Southeast  Level FlightAware
Sun 01:53:00 AM 15.4151 -72.2887 138° Southeast  Level FlightAware
Sun 01:54:00 AM 15.3178 -72.1969 138° Southeast  Level FlightAware
Sun 01:55:00 AM 15.2204 -72.1052 138° Southeast  Level FlightAware
Sun 01:56:00 AM 15.1229 -72.0135 138° Southeast  Level FlightAware
Sun 01:57:00 AM 15.0254 -71.9220 138° Southeast  Level FlightAware
Sun 01:58:00 AM 14.9279 -71.8305 138° Southeast  Level FlightAware
Sun 01:59:00 AM 14.8304 -71.7391 138° Southeast  Level FlightAware
Sun 02:00:00 AM 14.7328 -71.6478 138° Southeast  Level FlightAware
Sun 02:01:00 AM 14.6352 -71.5566 138° Southeast  Level FlightAware
Sun 02:02:00 AM 14.5375 -71.4654 138° Southeast  Level FlightAware
Sun 02:03:00 AM 14.4398 -71.3744 138° Southeast  Level FlightAware
Sun 02:04:00 AM 14.3421 -71.2834 138° Southeast  Level FlightAware
Sun 02:05:00 AM 14.2443 -71.1925 138° Southeast  Level FlightAware
Sun 02:06:00 AM 14.1465 -71.1017 138° Southeast  Level FlightAware
Sun 02:07:00 AM 14.0487 -71.0109 138° Southeast  Level FlightAware
Sun 02:08:00 AM 13.9508 -70.9203 138° Southeast  Level FlightAware
Sun 02:09:00 AM 13.8529 -70.8297 138° Southeast  Level FlightAware
Sun 02:10:00 AM 13.7550 -70.7392 138° Southeast  Level FlightAware
Sun 02:11:00 AM 13.6571 -70.6487 138° Southeast  Level FlightAware
Sun 02:12:00 AM 13.5590 -70.5584 138° Southeast  Level FlightAware
Sun 02:13:00 AM 13.4610 -70.4681 138° Southeast  Level FlightAware
Sun 02:14:00 AM 13.3630 -70.3779 138° Southeast  Level FlightAware
Sun 02:15:00 AM 13.2649 -70.2877 138° Southeast  Level FlightAware
Sun 02:16:00 AM 13.1667 -70.1976 138° Southeast  Level FlightAware
Sun 02:17:00 AM 13.0686 -70.1077 138° Southeast  Level FlightAware
Sun 02:18:00 AM 12.9704 -70.0177 138° Southeast  Level FlightAware
Sun 02:19:00 AM 12.8722 -69.9279 138° Southeast  Level FlightAware
Sun 02:20:00 AM 12.7739 -69.8381 138° Southeast  Level FlightAware
Sun 02:21:00 AM 12.6756 -69.7484 138° Southeast  Level FlightAware
Sun 02:22:00 AM 12.5808 -69.6619 138° Southeast  Level FlightAware
Sun 02:23:00 AM 12.4859 -69.5754 138° Southeast  Level FlightAware
Sun 02:24:00 AM 12.3910 -69.4891 138° Southeast  Level FlightAware
Sun 02:25:00 AM 12.2961 -69.4028 138° Southeast  Level FlightAware
Sun 02:26:00 AM 12.2011 -69.3165 138° Southeast  Level FlightAware
Sun 02:27:00 AM 12.1061 -69.2304 138° Southeast  Level FlightAware
Sun 02:28:00 AM 12.0111 -69.1442 138° Southeast  Level FlightAware
Sun 02:29:00 AM 11.9161 -69.0582 138° Southeast  Level FlightAware
Sun 02:30:00 AM 11.8204 -68.9729 142° Southeast  Level FlightAware
Sun 02:31:00 AM 11.7209 -68.8924 142° Southeast  Level FlightAware
Sun 02:32:00 AM 11.6213 -68.8120 142° Southeast  Level FlightAware
Sun 02:33:00 AM 11.5217 -68.7316 142° Southeast  Level FlightAware
Sun 02:34:00 AM 11.4221 -68.6513 142° Southeast  Level FlightAware
Sun 02:35:00 AM 11.3224 -68.5710 142° Southeast  Level FlightAware
Sun 02:36:00 AM 11.2228 -68.4908 142° Southeast  Level FlightAware
Sun 02:37:00 AM 11.1231 -68.4106 142° Southeast  Level FlightAware
Sun 02:38:00 AM 11.0234 -68.3305 142° Southeast  Level FlightAware
Sun 02:39:00 AM 10.9237 -68.2505 142° Southeast  Level FlightAware
Sun 02:40:00 AM 10.8239 -68.1705 142° Southeast  Level FlightAware
Sun 02:41:00 AM 10.7241 -68.0905 142° Southeast  Level FlightAware
Sun 02:42:00 AM 10.6244 -68.0106 142° Southeast  Level FlightAware
Sun 02:43:00 AM 10.5246 -67.9308 142° Southeast  Level FlightAware
Sun 02:44:00 AM 10.4247 -67.8510 142° Southeast  Level FlightAware
Sun 02:45:00 AM 10.3249 -67.7713 142° Southeast  Level FlightAware
Sun 02:46:00 AM 10.2250 -67.6916 142° Southeast  Level FlightAware
Sun 02:47:00 AM 10.1251 -67.6120 142° Southeast  Level FlightAware
Sun 02:48:00 AM 10.0252 -67.5324 142° Southeast  Level FlightAware
Sun 02:49:00 AM 9.9253 -67.4529 142° Southeast  Level FlightAware
Sun 02:50:00 AM 9.8253 -67.3734 142° Southeast  Level FlightAware
Sun 02:51:00 AM 9.7254 -67.2940 142° Southeast  Level FlightAware
Sun 02:52:00 AM 9.6254 -67.2146 142° Southeast  Level FlightAware
Sun 02:53:00 AM 9.5254 -67.1352 142° Southeast  Level FlightAware
Sun 02:54:00 AM 9.4254 -67.0559 142° Southeast  Level FlightAware
Sun 02:55:00 AM 9.3253 -66.9767 142° Southeast  Level FlightAware
Sun 02:56:00 AM 9.2253 -66.8975 142° Southeast  Level FlightAware
Sun 02:57:00 AM 9.1252 -66.8183 142° Southeast  Level FlightAware
Sun 02:58:00 AM 9.0251 -66.7392 142° Southeast  Level FlightAware
Sun 02:59:00 AM 8.9250 -66.6601 142° Southeast  Level FlightAware
Sun 03:00:00 AM 8.8249 -66.5811 142° Southeast  Level FlightAware
Sun 03:01:00 AM 8.7248 -66.5021 142° Southeast  Level FlightAware
Sun 03:02:00 AM 8.6246 -66.4232 142° Southeast  Level FlightAware
Sun 03:03:00 AM 8.5245 -66.3443 142° Southeast  Level FlightAware
Sun 03:04:00 AM 8.4243 -66.2654 142° Southeast  Level FlightAware
Sun 03:05:00 AM 8.3241 -66.1866 142° Southeast  Level FlightAware
Sun 03:06:00 AM 8.2239 -66.1078 142° Southeast  Level FlightAware
Sun 03:07:00 AM 8.1236 -66.0291 142° Southeast  Level FlightAware
Sun 03:08:00 AM 8.0234 -65.9504 142° Southeast  Level FlightAware
Sun 03:09:00 AM 7.9231 -65.8717 142° Southeast  Level FlightAware
Sun 03:10:00 AM 7.8229 -65.7931 142° Southeast  Level FlightAware
Sun 03:11:00 AM 7.7226 -65.7145 142° Southeast  Level FlightAware
Sun 03:12:00 AM 7.6223 -65.6360 142° Southeast  Level FlightAware
Sun 03:13:00 AM 7.5219 -65.5575 142° Southeast  Level FlightAware
Sun 03:14:00 AM 7.4216 -65.4790 142° Southeast  Level FlightAware
Sun 03:15:00 AM 7.3213 -65.4006 142° Southeast  Level FlightAware
Sun 03:16:00 AM 7.2209 -65.3222 142° Southeast  Level FlightAware
Sun 03:17:00 AM 7.1205 -65.2438 142° Southeast  Level FlightAware
Sun 03:18:00 AM 7.0201 -65.1655 142° Southeast  Level FlightAware
Sun 03:19:00 AM 6.9197 -65.0872 142° Southeast  Level FlightAware
Sun 03:20:00 AM 6.8193 -65.0089 142° Southeast  Level FlightAware
Sun 03:21:00 AM 6.7189 -64.9307 142° Southeast  Level FlightAware
Sun 03:22:00 AM 6.6185 -64.8525 142° Southeast  Level FlightAware
Sun 03:23:00 AM 6.5180 -64.7743 142° Southeast  Level FlightAware
Sun 03:24:00 AM 6.4176 -64.6962 142° Southeast  Level FlightAware
Sun 03:25:00 AM 6.3171 -64.6180 142° Southeast  Level FlightAware
Sun 03:26:00 AM 6.2166 -64.5400 142° Southeast  Level FlightAware
Sun 03:27:00 AM 6.1161 -64.4619 142° Southeast  Level FlightAware
Sun 03:28:00 AM 6.0156 -64.3839 142° Southeast  Level FlightAware
Sun 03:29:00 AM 5.9151 -64.3059 142° Southeast  Level FlightAware
Sun 03:30:00 AM 5.8145 -64.2279 142° Southeast  Level FlightAware
Sun 03:31:00 AM 5.7140 -64.1500 142° Southeast  Level FlightAware
Sun 03:32:00 AM 5.6135 -64.0721 142° Southeast  Level FlightAware
Sun 03:33:00 AM 5.5129 -63.9942 142° Southeast  Level FlightAware
Sun 03:34:00 AM 5.4123 -63.9164 142° Southeast  Level FlightAware
Sun 03:35:00 AM 5.3117 -63.8385 142° Southeast  Level FlightAware
Sun 03:36:00 AM 5.2112 -63.7607 142° Southeast  Level FlightAware
Sun 03:37:00 AM 5.1106 -63.6830 142° Southeast  Level FlightAware
Sun 03:38:00 AM 5.0100 -63.6052 142° Southeast  Level FlightAware
Sun 03:39:00 AM 4.9093 -63.5275 142° Southeast  Level FlightAware
Sun 03:40:00 AM 4.8087 -63.4498 142° Southeast  Level FlightAware
Sun 03:41:00 AM 4.7081 -63.3721 142° Southeast  Level FlightAware
Sun 03:42:00 AM 4.6074 -63.2944 142° Southeast  Level FlightAware
Sun 03:43:00 AM 4.5068 -63.2168 142° Southeast  Level FlightAware
Sun 03:44:00 AM 4.4061 -63.1392 142° Southeast  Level FlightAware
Sun 03:45:00 AM 4.3054 -63.0616 142° Southeast  Level FlightAware
Sun 03:46:00 AM 4.2048 -62.9840 142° Southeast  Level FlightAware
Sun 03:47:00 AM 4.1041 -62.9065 142° Southeast  Level FlightAware
Sun 03:48:00 AM 4.0034 -62.8289 142° Southeast  Level FlightAware
Sun 03:49:00 AM 3.9027 -62.7514 142° Southeast  Level FlightAware
Sun 03:50:00 AM 3.8020 -62.6739 142° Southeast  Level FlightAware
Sun 03:51:00 AM 3.7015 -62.5966 142° Southeast  Level FlightAware
Sun 03:52:00 AM 3.6010 -62.5193 142° Southeast  Level FlightAware
Sun 03:53:00 AM 3.5005 -62.4421 142° Southeast  Level FlightAware
Sun 03:54:00 AM 3.4000 -62.3648 143° Southeast  Level FlightAware
Sun 03:55:00 AM 3.2994 -62.2876 143° Southeast  Level FlightAware
Sun 03:56:00 AM 3.1989 -62.2104 143° Southeast  Level FlightAware
Sun 03:57:00 AM 3.0984 -62.1331 143° Southeast  Level FlightAware
Sun 03:58:00 AM 2.9978 -62.0559 143° Southeast  Level FlightAware
Sun 03:59:00 AM 2.8973 -61.9788 143° Southeast  Level FlightAware
Sun 04:00:00 AM 2.7968 -61.9016 143° Southeast  Level FlightAware
Sun 04:01:00 AM 2.6962 -61.8244 143° Southeast  Level FlightAware
Sun 04:02:00 AM 2.5956 -61.7473 143° Southeast  Level FlightAware
Sun 04:03:00 AM 2.4951 -61.6702 143° Southeast  Level FlightAware
Sun 04:04:00 AM 2.3945 -61.5930 143° Southeast  Level FlightAware
Sun 04:05:00 AM 2.2940 -61.5159 143° Southeast  Level FlightAware
Sun 04:06:00 AM 2.1934 -61.4388 143° Southeast  Level FlightAware
Sun 04:07:00 AM 2.0928 -61.3618 143° Southeast  Level FlightAware
Sun 04:08:00 AM 1.9922 -61.2847 143° Southeast  Level FlightAware
Sun 04:09:00 AM 1.8916 -61.2076 143° Southeast  Level FlightAware
Sun 04:10:00 AM 1.7910 -61.1306 143° Southeast  Level FlightAware
Sun 04:11:00 AM 1.6904 -61.0535 143° Southeast  Level FlightAware
Sun 04:12:00 AM 1.5898 -60.9765 143° Southeast  Level FlightAware
Sun 04:13:00 AM 1.4892 -60.8994 143° Southeast  Level FlightAware
Sun 04:14:00 AM 1.3886 -60.8224 143° Southeast  Level FlightAware
Sun 04:15:00 AM 1.2881 -60.7454 143° Southeast  Level FlightAware
Sun 04:16:00 AM 1.1874 -60.6684 143° Southeast  Level FlightAware
Sun 04:17:00 AM 1.0868 -60.5914 143° Southeast  Level FlightAware
Sun 04:18:00 AM 0.9862 -60.5144 143° Southeast  Level FlightAware
Sun 04:19:00 AM 0.8856 -60.4374 143° Southeast  Level FlightAware
Sun 04:20:00 AM 0.7850 -60.3604 143° Southeast  Level FlightAware
Sun 04:21:00 AM 0.6844 -60.2834 143° Southeast  Level FlightAware
Sun 04:22:00 AM 0.5838 -60.2064 143° Southeast  Level FlightAware
Sun 04:23:00 AM 0.4832 -60.1294 143° Southeast  Level FlightAware
Sun 04:24:00 AM 0.3825 -60.0524 143° Southeast  Level FlightAware
Sun 04:25:00 AM 0.2819 -59.9755 143° Southeast  Level FlightAware
Sun 04:26:00 AM 0.1813 -59.8985 143° Southeast  Level FlightAware
Sun 04:27:00 AM 0.0807 -59.8215 143° Southeast  Level FlightAware
Sun 04:28:00 AM -0.0200 -59.7445 143° Southeast  Level FlightAware
Sun 04:29:00 AM -0.1206 -59.6675 143° Southeast  Level FlightAware
Sun 04:30:00 AM -0.2212 -59.5906 143° Southeast  Level FlightAware
Sun 04:31:00 AM -0.3218 -59.5136 143° Southeast  Level FlightAware
Sun 04:32:00 AM -0.4224 -59.4366 143° Southeast  Level FlightAware
Sun 04:33:00 AM -0.5231 -59.3596 143° Southeast  Level FlightAware
Sun 04:34:00 AM -0.6237 -59.2826 143° Southeast  Level FlightAware
Sun 04:35:00 AM -0.7245 -59.2055 143° Southeast  Level FlightAware
Sun 04:36:00 AM -0.8253 -59.1283 143° Southeast  Level FlightAware
Sun 04:37:00 AM -0.9262 -59.0512 143° Southeast  Level FlightAware
Sun 04:38:00 AM -1.0270 -58.9740 143° Southeast  Level FlightAware
Sun 04:39:00 AM -1.1278 -58.8968 143° Southeast  Level FlightAware
Sun 04:40:00 AM -1.2287 -58.8196 143° Southeast  Level FlightAware
Sun 04:41:00 AM -1.3295 -58.7425 143° Southeast  Level FlightAware
Sun 04:42:00 AM -1.4303 -58.6653 143° Southeast  Level FlightAware
Sun 04:43:00 AM -1.5311 -58.5881 143° Southeast  Level FlightAware
Sun 04:44:00 AM -1.6320 -58.5109 143° Southeast  Level FlightAware
Sun 04:45:00 AM -1.7328 -58.4337 143° Southeast  Level FlightAware
Sun 04:46:00 AM -1.8336 -58.3564 143° Southeast  Level FlightAware
Sun 04:47:00 AM -1.9344 -58.2792 143° Southeast  Level FlightAware
Sun 04:48:00 AM -2.0352 -58.2020 143° Southeast  Level FlightAware
Sun 04:49:00 AM -2.1360 -58.1247 143° Southeast  Level FlightAware
Sun 04:50:00 AM -2.2368 -58.0475 143° Southeast  Level FlightAware
Sun 04:51:00 AM -2.3376 -57.9702 143° Southeast  Level FlightAware
Sun 04:52:00 AM -2.4384 -57.8929 143° Southeast  Level FlightAware
Sun 04:53:00 AM -2.5392 -57.8156 143° Southeast  Level FlightAware
Sun 04:54:00 AM -2.6400 -57.7383 143° Southeast  Level FlightAware
Sun 04:55:00 AM -2.7407 -57.6610 143° Southeast  Level FlightAware
Sun 04:56:00 AM -2.8415 -57.5837 143° Southeast  Level FlightAware
Sun 04:57:00 AM -2.9423 -57.5063 143° Southeast  Level FlightAware
Sun 04:58:00 AM -3.0430 -57.4290 143° Southeast  Level FlightAware
Sun 04:59:00 AM -3.1438 -57.3516 143° Southeast  Level FlightAware
Sun 05:00:00 AM -3.2445 -57.2742 143° Southeast  Level FlightAware
Sun 05:01:00 AM -3.3453 -57.1968 143° Southeast  Level FlightAware
Sun 05:02:00 AM -3.4460 -57.1194 143° Southeast  Level FlightAware
Sun 05:03:00 AM -3.5468 -57.0420 143° Southeast  Level FlightAware
Sun 05:04:00 AM -3.6475 -56.9645 142° Southeast  Level FlightAware
Sun 05:05:00 AM -3.7482 -56.8870 142° Southeast  Level FlightAware
Sun 05:06:00 AM -3.8489 -56.8095 142° Southeast  Level FlightAware
Sun 05:07:00 AM -3.9496 -56.7320 142° Southeast  Level FlightAware
Sun 05:08:00 AM -4.0503 -56.6545 142° Southeast  Level FlightAware
Sun 05:09:00 AM -4.1510 -56.5770 142° Southeast  Level FlightAware
Sun 05:10:00 AM -4.2517 -56.4994 142° Southeast  Level FlightAware
Sun 05:11:00 AM -4.3523 -56.4218 142° Southeast  Level FlightAware
Sun 05:12:00 AM -4.4530 -56.3442 142° Southeast  Level FlightAware
Sun 05:13:00 AM -4.5537 -56.2666 142° Southeast  Level FlightAware
Sun 05:14:00 AM -4.6543 -56.1890 142° Southeast  Level FlightAware
Sun 05:15:00 AM -4.7550 -56.1113 142° Southeast  Level FlightAware
Sun 05:16:00 AM -4.8556 -56.0336 142° Southeast  Level FlightAware
Sun 05:17:00 AM -4.9562 -55.9559 142° Southeast  Level FlightAware
Sun 05:18:00 AM -5.0568 -55.8782 142° Southeast  Level FlightAware
Sun 05:19:00 AM -5.1574 -55.8004 142° Southeast  Level FlightAware
Sun 05:20:00 AM -5.2580 -55.7226 142° Southeast  Level FlightAware
Sun 05:21:00 AM -5.3586 -55.6448 142° Southeast  Level FlightAware
Sun 05:22:00 AM -5.4592 -55.5670 142° Southeast  Level FlightAware
Sun 05:23:00 AM -5.5598 -55.4891 142° Southeast  Level FlightAware
Sun 05:24:00 AM -5.6603 -55.4112 142° Southeast  Level FlightAware
Sun 05:25:00 AM -5.7609 -55.3333 142° Southeast  Level FlightAware
Sun 05:26:00 AM -5.8614 -55.2553 142° Southeast  Level FlightAware
Sun 05:27:00 AM -5.9619 -55.1774 142° Southeast  Level FlightAware
Sun 05:28:00 AM -6.0624 -55.0994 142° Southeast  Level FlightAware
Sun 05:29:00 AM -6.1629 -55.0213 142° Southeast  Level FlightAware
Sun 05:30:00 AM -6.2634 -54.9433 142° Southeast  Level FlightAware
Sun 05:31:00 AM -6.3639 -54.8652 142° Southeast  Level FlightAware
Sun 05:32:00 AM -6.4644 -54.7871 142° Southeast  Level FlightAware
Sun 05:33:00 AM -6.5648 -54.7089 142° Southeast  Level FlightAware
Sun 05:34:00 AM -6.6653 -54.6307 142° Southeast  Level FlightAware
Sun 05:35:00 AM -6.7657 -54.5525 142° Southeast  Level FlightAware
Sun 05:36:00 AM -6.8661 -54.4743 142° Southeast  Level FlightAware
Sun 05:37:00 AM -6.9665 -54.3960 142° Southeast  Level FlightAware
Sun 05:38:00 AM -7.0669 -54.3177 142° Southeast  Level FlightAware
Sun 05:39:00 AM -7.1673 -54.2393 142° Southeast  Level FlightAware
Sun 05:40:00 AM -7.2677 -54.1609 142° Southeast  Level FlightAware
Sun 05:41:00 AM -7.3680 -54.0825 142° Southeast  Level FlightAware
Sun 05:42:00 AM -7.4684 -54.0041 142° Southeast  Level FlightAware
Sun 05:43:00 AM -7.5687 -53.9256 142° Southeast  Level FlightAware
Sun 05:44:00 AM -7.6690 -53.8470 142° Southeast  Level FlightAware
Sun 05:45:00 AM -7.7693 -53.7685 142° Southeast  Level FlightAware
Sun 05:46:00 AM -7.8696 -53.6899 142° Southeast  Level FlightAware
Sun 05:47:00 AM -7.9699 -53.6112 142° Southeast  Level FlightAware
Sun 05:48:00 AM -8.0701 -53.5326 142° Southeast  Level FlightAware
Sun 05:49:00 AM -8.1703 -53.4538 142° Southeast  Level FlightAware
Sun 05:50:00 AM -8.2706 -53.3751 142° Southeast  Level FlightAware
Sun 05:51:00 AM -8.3708 -53.2963 142° Southeast  Level FlightAware
Sun 05:52:00 AM -8.4710 -53.2174 142° Southeast  Level FlightAware
Sun 05:53:00 AM -8.5711 -53.1386 142° Southeast  Level FlightAware
Sun 05:54:00 AM -8.6713 -53.0596 142° Southeast  Level FlightAware
Sun 05:55:00 AM -8.7714 -52.9807 142° Southeast  Level FlightAware
Sun 05:56:00 AM -8.8716 -52.9017 142° Southeast  Level FlightAware
Sun 05:57:00 AM -8.9717 -52.8226 142° Southeast  Level FlightAware
Sun 05:58:00 AM -9.0718 -52.7435 142° Southeast  Level FlightAware
Sun 05:59:00 AM -9.1719 -52.6644 142° Southeast  Level FlightAware
Sun 06:00:00 AM -9.2719 -52.5852 142° Southeast  Level FlightAware
Sun 06:01:00 AM -9.3720 -52.5060 142° Southeast  Level FlightAware
Sun 06:02:00 AM -9.4720 -52.4267 142° Southeast  Level FlightAware
Sun 06:03:00 AM -9.5720 -52.3474 142° Southeast  Level FlightAware
Sun 06:04:00 AM -9.6720 -52.2680 142° Southeast  Level FlightAware
Sun 06:05:00 AM -9.7719 -52.1886 142° Southeast  Level FlightAware
Sun 06:06:00 AM -9.8719 -52.1092 142° Southeast  Level FlightAware
Sun 06:07:00 AM -9.9718 -52.0297 142° Southeast  Level FlightAware
Sun 06:08:00 AM -10.0717 -51.9501 142° Southeast  Level FlightAware
Sun 06:09:00 AM -10.1716 -51.8705 142° Southeast  Level FlightAware
Sun 06:10:00 AM -10.2715 -51.7908 142° Southeast  Level FlightAware
Sun 06:11:00 AM -10.3714 -51.7111 142° Southeast  Level FlightAware
Sun 06:12:00 AM -10.4712 -51.6314 142° Southeast  Level FlightAware
Sun 06:13:00 AM -10.5710 -51.5516 142° Southeast  Level FlightAware
Sun 06:14:00 AM -10.6708 -51.4717 142° Southeast  Level FlightAware
Sun 06:15:00 AM -10.7706 -51.3918 142° Southeast  Level FlightAware
Sun 06:16:00 AM -10.8704 -51.3118 142° Southeast  Level FlightAware
Sun 06:17:00 AM -10.9701 -51.2318 142° Southeast  Level FlightAware
Sun 06:18:00 AM -11.0698 -51.1517 142° Southeast  Level FlightAware
Sun 06:19:00 AM -11.1695 -51.0716 142° Southeast  Level FlightAware
Sun 06:20:00 AM -11.2692 -50.9914 142° Southeast  Level FlightAware
Sun 06:21:00 AM -11.3688 -50.9112 142° Southeast  Level FlightAware
Sun 06:22:00 AM -11.4685 -50.8309 142° Southeast  Level FlightAware
Sun 06:23:00 AM -11.5681 -50.7505 142° Southeast  Level FlightAware
Sun 06:24:00 AM -11.6677 -50.6701 142° Southeast  Level FlightAware
Sun 06:25:00 AM -11.7672 -50.5897 142° Southeast  Level FlightAware
Sun 06:26:00 AM -11.8668 -50.5092 142° Southeast  Level FlightAware
Sun 06:27:00 AM -11.9663 -50.4286 142° Southeast  Level FlightAware
Sun 06:28:00 AM -12.0658 -50.3479 142° Southeast  Level FlightAware
Sun 06:29:00 AM -12.1653 -50.2672 142° Southeast  Level FlightAware
Sun 06:30:00 AM -12.2647 -50.1865 142° Southeast  Level FlightAware
Sun 06:31:00 AM -12.3641 -50.1057 142° Southeast  Level FlightAware
Sun 06:32:00 AM -12.4635 -50.0248 142° Southeast  Level FlightAware
Sun 06:33:00 AM -12.5629 -49.9438 142° Southeast  Level FlightAware
Sun 06:34:00 AM -12.6623 -49.8628 141° Southeast  Level FlightAware
Sun 06:35:00 AM -12.7616 -49.7817 141° Southeast  Level FlightAware
Sun 06:36:00 AM -12.8609 -49.7006 141° Southeast  Level FlightAware
Sun 06:37:00 AM -12.9602 -49.6194 141° Southeast  Level FlightAware
Sun 06:38:00 AM -13.0594 -49.5381 141° Southeast  Level FlightAware
Sun 06:39:00 AM -13.1587 -49.4568 141° Southeast  Level FlightAware
Sun 06:40:00 AM -13.2578 -49.3754 141° Southeast  Level FlightAware
Sun 06:40:57 AM -14.7510 -49.1480 141° Southeast 458 527 37,000  Level FlightAware
Sun 06:41:00 AM -13.3570 -49.2939 141° Southeast  Level FlightAware
Sun 06:41:22 AM -14.7900 -49.1110 137° Southeast 458 527 37,000  Level FlightAware
Sun 06:42:07 AM -14.8610 -49.0420 137° Southeast 458 527 37,000  Level FlightAware
Sun 06:42:47 AM -14.9220 -48.9830 137° Southeast 458 527 37,000  Level FlightAware
Sun 06:43:17 AM -14.9710 -48.9360 137° Southeast 457 526 37,000  Level FlightAware
Sun 06:44:02 AM -15.0370 -48.8740 138° Southeast 458 527 37,000  Level FlightAware
Sun 06:44:37 AM -15.0890 -48.8230 137° Southeast 458 527 37,000  Level FlightAware
Sun 06:46:12 AM -15.2430 -48.6750 137° Southeast 459 528 37,000  Level FlightAware
Sun 06:46:42 AM -15.2820 -48.6340 135° Southeast 460 529 37,000  Level FlightAware
Sun 06:47:17 AM -15.3410 -48.5730 135° Southeast 461 531 37,000  Level FlightAware
Sun 06:48:02 AM -15.4050 -48.5050 134° Southeast 461 531 37,000  Level FlightAware
Sun 06:48:47 AM -15.4750 -48.4330 135° Southeast 461 531 37,000  Level FlightAware
Sun 06:49:27 AM -15.5330 -48.3730 135° Southeast 460 529 37,000  Level FlightAware
Sun 06:50:02 AM -15.5890 -48.3150 135° Southeast 459 528 37,000  Level FlightAware
Sun 06:51:07 AM -15.6880 -48.2120 135° Southeast 459 528 37,000  Level FlightAware
Sun 06:52:42 AM -15.8230 -48.0690 134° Southeast 458 527 37,000  Level FlightAware
Sun 06:53:22 AM -15.8810 -48.0100 136° Southeast 458 527 37,000  Level FlightAware
Sun 06:53:42 AM -15.9340 -47.9890 159° South 447 514 37,000  Level FlightAware
Sun 06:54:32 AM -16.0160 -47.9390 150° Southeast 447 514 37,000  Level FlightAware
Sun 06:55:22 AM -16.0910 -47.8920 149° Southeast 447 514 37,000  Level FlightAware
Sun 06:56:22 AM -16.2150 -47.8180 150° Southeast 447 514 37,000  Level FlightAware
Sun 06:57:17 AM -16.3160 -47.7560 149° Southeast 448 516 37,000  Level FlightAware
Sun 06:58:02 AM -16.3930 -47.7090 150° Southeast 447 514 37,000  Level FlightAware
Sun 06:58:57 AM -16.4950 -47.6460 149° Southeast 446 513 37,000  Level FlightAware
Sun 06:59:32 AM -16.5600 -47.6070 150° Southeast 443 510 37,000  Level FlightAware
Sun 07:00:22 AM -16.6480 -47.5520 149° Southeast 439 505 37,000  Level FlightAware
Sun 07:01:07 AM -16.7260 -47.5040 149° Southeast 436 502 37,000  Level FlightAware
Sun 07:01:42 AM -16.7870 -47.4670 150° Southeast 434 499 37,000  Level FlightAware
Sun 07:02:27 AM -16.8560 -47.4230 149° Southeast 434 499 37,000  Level FlightAware
Sun 07:03:07 AM -16.9140 -47.3870 149° Southeast 434 499 37,000  Level FlightAware
Sun 07:03:57 AM -16.9880 -47.3410 149° Southeast 434 499 37,000  Level FlightAware
Sun 07:04:37 AM -17.0460 -47.3040 149° Southeast 434 499 37,000  Level FlightAware
Sun 07:05:17 AM -17.1050 -47.2670 149° Southeast 434 499 37,000  Level FlightAware
Sun 07:05:47 AM -17.1480 -47.2400 149° Southeast 434 499 37,000  Level FlightAware
Sun 07:06:37 AM -17.2220 -47.1940 149° Southeast 434 499 37,000  Level FlightAware
Sun 07:07:02 AM -17.3410 -47.1240 151° Southeast 442 509 37,000  Level FlightAware
Sun 07:09:00 AM -17.4945 -46.9175 128° Southeast  Level Estimated
Sun 07:09:02 AM -17.5540 -46.9910 128° Southeast 445 512 37,000  Level FlightAware
Sun 07:09:42 AM -17.6270 -46.9450 149° Southeast 446 513 37,000  Level FlightAware
Sun 07:10:22 AM -17.6970 -46.9010 149° Southeast 447 514 37,000  Level FlightAware
Sun 07:11:02 AM -17.7660 -46.8580 149° Southeast 446 513 37,000  Level FlightAware
Sun 07:12:42 AM -17.9450 -46.7460 125° Southeast 445 512 37,000  Level FlightAware
Sun 07:13:00 AM -17.9083 -46.6424 125° Southeast  Level Estimated
Sun 07:13:42 AM -18.0510 -46.6790 149° Southeast 443 510 37,000  Level FlightAware
Sun 07:14:17 AM -18.1130 -46.6400 149° Southeast 441 507 37,000  Level FlightAware
Sun 07:14:52 AM -18.1740 -46.6020 149° Southeast 442 509 37,000  Level FlightAware
Sun 07:15:27 AM -18.2290 -46.5530 140° Southeast 455 524 37,000  Level FlightAware
Sun 07:16:12 AM -18.2800 -46.4730 124° Southeast 463 533 37,000  Level FlightAware
Sun 07:16:57 AM -18.3330 -46.3780 120° Southeast 463 533 37,000  Level FlightAware
Sun 07:17:37 AM -18.3760 -46.3030 121° Southeast 463 533 37,000  Level FlightAware
Sun 07:18:17 AM -18.4210 -46.2220 120° Southeast 463 533 37,000  Level FlightAware
Sun 07:19:02 AM -18.4700 -46.1350 121° Southeast 463 533 37,000  Level FlightAware
Sun 07:19:37 AM -18.5080 -46.0670 121° Southeast 463 533 37,000  Level FlightAware
Sun 07:20:32 AM -18.5680 -45.9600 121° Southeast 463 533 37,000  Level FlightAware
Sun 07:21:07 AM -18.6040 -45.8950 120° Southeast 463 533 37,000  Level FlightAware
Sun 07:21:57 AM -18.6610 -45.7940 121° Southeast 463 533 37,000  Level FlightAware
Sun 07:22:42 AM -18.7090 -45.7070 120° Southeast 463 533 37,000 -200 Level FlightAware
Sun 07:23:27 AM -18.7580 -45.6200 121° Southeast 463 533 36,700 -1,425 Descending FlightAware
Sun 07:24:02 AM -18.7960 -45.5520 121° Southeast 467 537 35,100 -3,130 Descending FlightAware
Sun 07:25:22 AM -18.8800 -45.3990 120° Southeast 483 556 30,700 -3,109 Descending FlightAware
Sun 07:25:52 AM -18.9100 -45.3450 120° Southeast 479 551 29,400 -2,880 Descending FlightAware
Sun 07:26:37 AM -18.9650 -45.2460 120° Southeast 472 543 27,100 -3,000 Descending FlightAware
Sun 07:27:32 AM -19.0240 -45.1410 121° Southeast 471 542 24,400 -2,928 Descending FlightAware
Sun 07:28:42 AM -19.1010 -45.0010 120° Southeast 453 521 21,000 -2,922 Descending FlightAware
Sun 07:29:27 AM -19.1470 -44.9180 120° Southeast 445 512 18,800 -2,779 Descending FlightAware
Sun 07:30:17 AM -19.1990 -44.8230 120° Southeast 434 499 16,600 -2,600 Descending FlightAware
Sun 07:30:57 AM -19.2390 -44.7500 120° Southeast 421 484 14,900 -2,400 Descending FlightAware
Sun 07:31:32 AM -19.2690 -44.6860 116° Southeast 405 466 13,600 -2,400 Descending FlightAware
Sun 07:32:02 AM -19.2860 -44.6320 108° East 399 459 12,300 -1,642 Descending FlightAware
Sun 07:33:07 AM -19.3210 -44.5130 107° East 364 419 11,000 -750 Descending FlightAware
Sun 07:34:02 AM -19.3480 -44.4210 107° East 336 387 10,800 -333 Descending FlightAware
Sun 07:34:37 AM -19.3630 -44.3700 107° East 297 342 10,500 -1,114 Descending FlightAware
Sun 07:35:12 AM -19.3770 -44.3220 107° East 294 338 9,500 -2,000 Descending FlightAware
Sun 07:35:37 AM -19.3870 -44.2860 106° East 297 342 8,500 -2,267 Descending FlightAware
Sun 07:35:57 AM -19.3950 -44.2590 107° East 297 342 7,800 -1,950 Descending FlightAware
Sun 07:36:17 AM -19.4030 -44.2330 108° East 293 337 7,200 -1,920 Descending FlightAware
Sun 07:36:47 AM -19.4150 -44.1910 107° East 279 321 6,200 -1,867 Descending FlightAware
Sun 07:37:02 AM -19.4210 -44.1720 109° East 271 312 5,800 -750 Descending FlightAware
Sun 07:37:27 AM -19.4380 -44.1460 125° Southeast 245 282 5,700 -109 Descending FlightAware
Sun 07:37:57 AM -19.4620 -44.1240 139° Southeast 217 250 5,700 -250 Level FlightAware
Sun 07:39:27 AM -19.5270 -44.0660 140° Southeast 196 226 5,200 -730 Descending FlightAware
Sun 07:39:52 AM -19.5430 -44.0500 137° Southeast 168 193 4,300 -1,560 Descending FlightAware
Sun 07:40:17 AM -19.5570 -44.0370 139° Southeast 153 176 3,900 -800 Descending FlightAware
Sun 07:40:52 AM -19.5760 -44.0200 140° Southeast 152 175 3,500 -831 Descending FlightAware
Sun 07:41:22 AM -19.5920 -44.0050 139° Southeast 150 173 3,000 -873 Descending FlightAware
Sun 07:41:47 AM -19.6050 -43.9930 139° Southeast 146 168 2,700 -720 Descending FlightAware

Login

Don't have an account? Register now (free) for customized features, flight alerts, and more!